Four Nabucco — ZGAP9 — position and weather

sailwx.info

Track history (hours):
 
Tides and Currents Weather Stations Pressure Air Temp Water Temp Dewpoint Dewpoint Depression Visibility Wind Speed Wind Dir Waves Ship Positions

Four Nabucco

Last reported at 2015-Jul-08 16:33 UTC. Time now 2015-Aug-30 14:01 UTC.
Position S 34°23' W 057°59'.
Warning: this ship's position is 52 days out of date.

Length 180 m; draft 6.2 m.

Type: Cargo ship. MMSI: 319030700.

Date/timePositionNaut miles runAvg speedWind from/ knotsBaromVisibWave heightAir tempDewpointWater temp
2015-Jul-08 16:33S 34°23' W 057°59'1212.2
2015-Jul-08 15:34S 34°35' W 057°57'9 8.6
2015-Jul-08 14:33S 34°43' W 057°51'5 3.1
2015-Jul-08 13:05S 34°46' W 057°47'0 0.0
2015-Jul-08 12:32S 34°46' W 057°47'0 0.0
2015-Jul-08 11:32S 34°46' W 057°47'0 0.0
2015-Jul-08 10:23S 34°46' W 057°47'0 0.1
2015-Jul-08 08:32S 34°46' W 057°47'0 0.0
2015-Jul-08 07:29S 34°46' W 057°47'0 0.0
2015-Jul-08 06:33S 34°46' W 057°47'0 0.0
2015-Jul-08 05:33S 34°46' W 057°47'1 1.2
2015-Jul-08 04:33S 34°45' W 057°46'10 9.9
2015-Jul-08 03:33S 34°46' W 057°34'  
Track history (hours):
 
Tides and Currents Weather Stations Pressure Air Temp Water Temp Dewpoint Dewpoint Depression Visibility Wind Speed Wind Dir Waves Ship Positions

Four Nabucco

Last reported at 2015-Jul-08 16:33 UTC. Time now 2015-Aug-30 14:01 UTC.
Position S 34°23' W 057°59'.
Warning: this ship's position is 52 days out of date.

Length 180 m; draft 6.2 m.

Type: Cargo ship. MMSI: 319030700.

Date/timePositionNaut miles runAvg speedWind from/ knotsBaromVisibWave heightAir tempDewpointWater temp
2015-Jul-08 16:33S 34°23' W 057°59'1212.2
2015-Jul-08 15:34S 34°35' W 057°57'9 8.6
2015-Jul-08 14:33S 34°43' W 057°51'5 3.1
2015-Jul-08 13:05S 34°46' W 057°47'0 0.0
2015-Jul-08 12:32S 34°46' W 057°47'0 0.0
2015-Jul-08 11:32S 34°46' W 057°47'0 0.0
2015-Jul-08 10:23S 34°46' W 057°47'0 0.1
2015-Jul-08 08:32S 34°46' W 057°47'0 0.0
2015-Jul-08 07:29S 34°46' W 057°47'0 0.0
2015-Jul-08 06:33S 34°46' W 057°47'0 0.0
2015-Jul-08 05:33S 34°46' W 057°47'1 1.2
2015-Jul-08 04:33S 34°45' W 057°46'10 9.9
2015-Jul-08 03:33S 34°46' W 057°34'  

Dump ship's entire track history